sensor_id;sensor_type;location;lat;lon;timestamp;pressure;altitude;pressure_sealevel;temperature;humidity
7109;BME280;29079;41.930;25.558;2023-04-16T00:01:47;99169.72;;;12.85;62.96
7109;BME280;29079;41.930;25.558;2023-04-16T00:04:22;99178.28;;;12.97;64.44
7109;BME280;29079;41.930;25.558;2023-04-16T00:06:55;99176.47;;;12.63;63.54
7109;BME280;29079;41.930;25.558;2023-04-16T00:09:28;99177.25;;;12.55;64.52
7109;BME280;29079;41.930;25.558;2023-04-16T00:12:02;99175.72;;;12.79;66.73
7109;BME280;29079;41.930;25.558;2023-04-16T00:14:35;99172.81;;;13.06;64.71
7109;BME280;29079;41.930;25.558;2023-04-16T00:17:09;99172.09;;;12.62;65.46
7109;BME280;29079;41.930;25.558;2023-04-16T00:19:44;99170.25;;;12.88;65.95
7109;BME280;29079;41.930;25.558;2023-04-16T00:22:17;99171.78;;;12.91;65.83
7109;BME280;29079;41.930;25.558;2023-04-16T00:24:51;99175.78;;;12.95;66.80
7109;BME280;29079;41.930;25.558;2023-04-16T00:27:24;99172.53;;;12.75;67.04
7109;BME280;29079;41.930;25.558;2023-04-16T00:29:57;99173.69;;;12.81;68.11
7109;BME280;29079;41.930;25.558;2023-04-16T00:32:30;99170.25;;;12.88;67.65
7109;BME280;29079;41.930;25.558;2023-04-16T00:35:05;99161.16;;;13.16;67.05
7109;BME280;29079;41.930;25.558;2023-04-16T00:37:39;99170.25;;;12.97;67.42
7109;BME280;29079;41.930;25.558;2023-04-16T00:40:12;99160.47;;;12.79;68.68
7109;BME280;29079;41.930;25.558;2023-04-16T00:42:45;99160.94;;;12.66;68.46
7109;BME280;29079;41.930;25.558;2023-04-16T00:45:18;99159.41;;;12.98;69.43
7109;BME280;29079;41.930;25.558;2023-04-16T00:47:51;99158.94;;;13.11;68.40
7109;BME280;29079;41.930;25.558;2023-04-16T00:50:26;99158.94;;;12.68;69.32
7109;BME280;29079;41.930;25.558;2023-04-16T00:52:59;99169.00;;;12.75;70.70
7109;BME280;29079;41.930;25.558;2023-04-16T00:55:33;99150.34;;;12.91;69.33
7109;BME280;29079;41.930;25.558;2023-04-16T00:58:06;99156.66;;;12.82;69.95
7109;BME280;29079;41.930;25.558;2023-04-16T01:00:39;99150.22;;;12.66;69.83
7109;BME280;29079;41.930;25.558;2023-04-16T01:03:12;99145.72;;;13.10;71.17
7109;BME280;29079;41.930;25.558;2023-04-16T01:05:47;99151.06;;;13.01;69.70
7109;BME280;29079;41.930;25.558;2023-04-16T01:08:21;99141.53;;;13.07;69.52
7109;BME280;29079;41.930;25.558;2023-04-16T01:10:54;99152.09;;;13.09;70.80
7109;BME280;29079;41.930;25.558;2023-04-16T01:13:30;99156.47;;;12.83;70.33
7109;BME280;29079;41.930;25.558;2023-04-16T01:16:04;99150.94;;;12.77;70.02
7109;BME280;29079;41.930;25.558;2023-04-16T01:18:39;99142.31;;;12.99;69.34
7109;BME280;29079;41.930;25.558;2023-04-16T01:21:13;99135.31;;;13.06;70.78
7109;BME280;29079;41.930;25.558;2023-04-16T01:23:46;99136.56;;;13.20;69.79
7109;BME280;29079;41.930;25.558;2023-04-16T01:26:19;99140.00;;;13.04;71.45
7109;BME280;29079;41.930;25.558;2023-04-16T01:28:53;99136.63;;;13.02;71.30
7109;BME280;29079;41.930;25.558;2023-04-16T01:31:26;99133.13;;;13.02;70.87
7109;BME280;29079;41.930;25.558;2023-04-16T01:33:59;99128.97;;;13.07;71.58
7109;BME280;29079;41.930;25.558;2023-04-16T01:36:34;99130.09;;;12.97;70.72
7109;BME280;29079;41.930;25.558;2023-04-16T01:39:07;99128.78;;;13.01;72.29
7109;BME280;29079;41.930;25.558;2023-04-16T01:41:42;99134.28;;;12.99;70.01
7109;BME280;29079;41.930;25.558;2023-04-16T01:44:15;99129.09;;;12.98;70.91
7109;BME280;29079;41.930;25.558;2023-04-16T01:46:48;99132.88;;;12.79;72.79
7109;BME280;29079;41.930;25.558;2023-04-16T01:49:21;99132.97;;;13.03;72.70
7109;BME280;29079;41.930;25.558;2023-04-16T01:51:56;99140.19;;;12.68;73.23
7109;BME280;29079;41.930;25.558;2023-04-16T01:54:29;99140.78;;;12.54;73.93
7109;BME280;29079;41.930;25.558;2023-04-16T01:57:02;99142.78;;;12.52;75.05
7109;BME280;29079;41.930;25.558;2023-04-16T01:59:36;99141.97;;;12.60;75.12
7109;BME280;29079;41.930;25.558;2023-04-16T02:02:09;99135.22;;;12.82;75.34
7109;BME280;29079;41.930;25.558;2023-04-16T02:04:44;99139.66;;;12.65;74.77
7109;BME280;29079;41.930;25.558;2023-04-16T02:07:18;99128.66;;;12.76;75.37
7109;BME280;29079;41.930;25.558;2023-04-16T02:09:52;99142.72;;;12.44;76.44
7109;BME280;29079;41.930;25.558;2023-04-16T02:12:26;99129.69;;;12.75;75.72
7109;BME280;29079;41.930;25.558;2023-04-16T02:14:59;99126.66;;;12.44;77.57
7109;BME280;29079;41.930;25.558;2023-04-16T02:17:33;99131.13;;;12.61;77.35
7109;BME280;29079;41.930;25.558;2023-04-16T02:20:06;99128.22;;;12.89;75.59
7109;BME280;29079;41.930;25.558;2023-04-16T02:22:42;99130.44;;;12.59;77.61
7109;BME280;29079;41.930;25.558;2023-04-16T02:25:15;99122.38;;;12.85;76.98
7109;BME280;29079;41.930;25.558;2023-04-16T02:27:48;99125.50;;;12.81;75.98
7109;BME280;29079;41.930;25.558;2023-04-16T02:30:22;99130.47;;;12.67;77.06
7109;BME280;29079;41.930;25.558;2023-04-16T02:32:55;99125.09;;;12.59;77.31
7109;BME280;29079;41.930;25.558;2023-04-16T02:35:28;99129.81;;;12.39;78.80
7109;BME280;29079;41.930;25.558;2023-04-16T02:38:03;99127.22;;;12.56;78.08
7109;BME280;29079;41.930;25.558;2023-04-16T02:40:36;99122.41;;;13.02;76.42
7109;BME280;29079;41.930;25.558;2023-04-16T02:43:09;99116.47;;;12.74;76.98
7109;BME280;29079;41.930;25.558;2023-04-16T02:45:42;99108.72;;;12.70;77.75
7109;BME280;29079;41.930;25.558;2023-04-16T02:48:15;99114.53;;;12.58;77.72
7109;BME280;29079;41.930;25.558;2023-04-16T02:50:48;99116.84;;;12.26;79.84
7109;BME280;29079;41.930;25.558;2023-04-16T02:53:24;99123.88;;;12.53;78.96
7109;BME280;29079;41.930;25.558;2023-04-16T02:55:57;99115.66;;;12.81;77.87
7109;BME280;29079;41.930;25.558;2023-04-16T02:58:30;99115.38;;;12.58;78.65
7109;BME280;29079;41.930;25.558;2023-04-16T03:01:03;99116.59;;;12.38;80.23
7109;BME280;29079;41.930;25.558;2023-04-16T03:03:36;99119.78;;;12.41;79.83
7109;BME280;29079;41.930;25.558;2023-04-16T03:06:09;99136.53;;;12.43;80.58
7109;BME280;29079;41.930;25.558;2023-04-16T03:08:44;99132.59;;;12.56;80.21
7109;BME280;29079;41.930;25.558;2023-04-16T03:11:17;99135.72;;;11.98;82.16
7109;BME280;29079;41.930;25.558;2023-04-16T03:13:51;99134.78;;;12.08;82.68
7109;BME280;29079;41.930;25.558;2023-04-16T03:16:25;99136.78;;;12.06;82.33
7109;BME280;29079;41.930;25.558;2023-04-16T03:18:58;99139.13;;;12.09;82.12
7109;BME280;29079;41.930;25.558;2023-04-16T03:21:31;99146.63;;;12.31;81.55
7109;BME280;29079;41.930;25.558;2023-04-16T03:24:06;99139.94;;;12.27;81.75
7109;BME280;29079;41.930;25.558;2023-04-16T03:26:39;99149.69;;;12.36;82.18
7109;BME280;29079;41.930;25.558;2023-04-16T03:29:12;99153.44;;;12.44;82.16
7109;BME280;29079;41.930;25.558;2023-04-16T03:31:45;99152.44;;;12.79;80.00
7109;BME280;29079;41.930;25.558;2023-04-16T03:34:20;99153.44;;;12.44;81.19
7109;BME280;29079;41.930;25.558;2023-04-16T03:36:53;99153.09;;;12.73;79.44
7109;BME280;29079;41.930;25.558;2023-04-16T03:39:28;99154.25;;;12.70;79.87
7109;BME280;29079;41.930;25.558;2023-04-16T03:42:01;99158.75;;;12.70;80.63
7109;BME280;29079;41.930;25.558;2023-04-16T03:44:34;99158.53;;;12.55;81.00
7109;BME280;29079;41.930;25.558;2023-04-16T03:47:07;99161.63;;;12.24;82.31
7109;BME280;29079;41.930;25.558;2023-04-16T03:49:40;99166.38;;;12.57;81.57
7109;BME280;29079;41.930;25.558;2023-04-16T03:52:13;99162.81;;;12.48;81.83
7109;BME280;29079;41.930;25.558;2023-04-16T03:54:48;99166.19;;;12.84;80.16
7109;BME280;29079;41.930;25.558;2023-04-16T03:57:21;99162.84;;;12.82;80.65
7109;BME280;29079;41.930;25.558;2023-04-16T03:59:54;99158.53;;;12.63;81.22
7109;BME280;29079;41.930;25.558;2023-04-16T04:02:27;99162.03;;;12.56;81.86
7109;BME280;29079;41.930;25.558;2023-04-16T04:05:01;99160.31;;;12.46;82.44
7109;BME280;29079;41.930;25.558;2023-04-16T04:07:34;99159.34;;;12.56;82.43
7109;BME280;29079;41.930;25.558;2023-04-16T04:10:09;99165.47;;;12.74;81.29
7109;BME280;29079;41.930;25.558;2023-04-16T04:12:43;99170.59;;;12.33;81.29
7109;BME280;29079;41.930;25.558;2023-04-16T04:15:16;99171.00;;;12.20;82.11
7109;BME280;29079;41.930;25.558;2023-04-16T04:17:50;99171.31;;;12.17;81.90
7109;BME280;29079;41.930;25.558;2023-04-16T04:20:23;99173.03;;;12.26;80.95
7109;BME280;29079;41.930;25.558;2023-04-16T04:22:56;99185.22;;;12.02;82.45
7109;BME280;29079;41.930;25.558;2023-04-16T04:25:31;99194.44;;;12.08;82.02
7109;BME280;29079;41.930;25.558;2023-04-16T04:28:04;99192.47;;;12.10;81.86
7109;BME280;29079;41.930;25.558;2023-04-16T04:30:37;99191.69;;;12.36;81.04
7109;BME280;29079;41.930;25.558;2023-04-16T04:33:11;99195.16;;;12.10;80.97
7109;BME280;29079;41.930;25.558;2023-04-16T04:35:44;99199.28;;;12.05;81.14
7109;BME280;29079;41.930;25.558;2023-04-16T04:38:17;99202.47;;;11.72;82.32
7109;BME280;29079;41.930;25.558;2023-04-16T04:40:53;99208.06;;;11.97;81.26
7109;BME280;29079;41.930;25.558;2023-04-16T04:43:26;99217.78;;;12.16;81.09
7109;BME280;29079;41.930;25.558;2023-04-16T04:45:59;99219.81;;;12.22;80.47
7109;BME280;29079;41.930;25.558;2023-04-16T04:48:32;99220.69;;;12.05;81.39
7109;BME280;29079;41.930;25.558;2023-04-16T04:51:05;99222.31;;;11.70;82.28
7109;BME280;29079;41.930;25.558;2023-04-16T04:53:38;99228.44;;;11.80;82.01
7109;BME280;29079;41.930;25.558;2023-04-16T04:56:13;99223.25;;;11.78;81.76
7109;BME280;29079;41.930;25.558;2023-04-16T04:58:48;99229.41;;;11.79;81.77
7109;BME280;29079;41.930;25.558;2023-04-16T05:01:21;99234.44;;;11.82;81.26
7109;BME280;29079;41.930;25.558;2023-04-16T05:03:54;99225.59;;;11.81;84.22
7109;BME280;29079;41.930;25.558;2023-04-16T05:06:27;99235.16;;;11.84;86.76
7109;BME280;29079;41.930;25.558;2023-04-16T05:09:00;99228.19;;;11.73;92.68
7109;BME280;29079;41.930;25.558;2023-04-16T05:11:35;99226.31;;;11.56;92.09
7109;BME280;29079;41.930;25.558;2023-04-16T05:14:09;99225.31;;;11.39;92.84
7109;BME280;29079;41.930;25.558;2023-04-16T05:16:42;99222.19;;;11.43;93.92
7109;BME280;29079;41.930;25.558;2023-04-16T05:19:16;99225.47;;;11.37;94.16
7109;BME280;29079;41.930;25.558;2023-04-16T05:21:49;99222.72;;;11.47;94.24
7109;BME280;29079;41.930;25.558;2023-04-16T05:24:22;99226.25;;;11.47;94.35
7109;BME280;29079;41.930;25.558;2023-04-16T05:26:57;99221.34;;;11.43;95.79
7109;BME280;29079;41.930;25.558;2023-04-16T05:29:30;99212.34;;;11.44;97.12
7109;BME280;29079;41.930;25.558;2023-04-16T05:32:03;99212.38;;;11.62;95.30
7109;BME280;29079;41.930;25.558;2023-04-16T05:34:36;99222.50;;;12.22;93.02
7109;BME280;29079;41.930;25.558;2023-04-16T05:37:09;99220.44;;;11.98;95.17
7109;BME280;29079;41.930;25.558;2023-04-16T05:39:43;99222.41;;;11.50;95.67
7109;BME280;29079;41.930;25.558;2023-04-16T05:42:18;99225.19;;;12.04;93.54
7109;BME280;29079;41.930;25.558;2023-04-16T05:44:51;99231.00;;;12.17;93.98
7109;BME280;29079;41.930;25.558;2023-04-16T05:47:24;99214.47;;;12.22;94.50
7109;BME280;29079;41.930;25.558;2023-04-16T05:49:57;99213.03;;;12.10;95.39
7109;BME280;29079;41.930;25.558;2023-04-16T05:52:30;99213.41;;;12.15;94.33
7109;BME280;29079;41.930;25.558;2023-04-16T05:55:04;99209.16;;;12.48;92.98
7109;BME280;29079;41.930;25.558;2023-04-16T05:57:39;99206.63;;;12.73;91.86
7109;BME280;29079;41.930;25.558;2023-04-16T06:00:13;99209.25;;;12.39;90.87
7109;BME280;29079;41.930;25.558;2023-04-16T06:02:46;99207.09;;;12.42;93.53
7109;BME280;29079;41.930;25.558;2023-04-16T06:05:19;99201.84;;;12.85;89.01
7109;BME280;29079;41.930;25.558;2023-04-16T06:07:52;99199.94;;;13.03;87.93
7109;BME280;29079;41.930;25.558;2023-04-16T06:10:27;99206.44;;;12.93;92.48
7109;BME280;29079;41.930;25.558;2023-04-16T06:13:02;99207.63;;;12.98;91.17
7109;BME280;29079;41.930;25.558;2023-04-16T06:15:35;99201.63;;;13.13;88.55
7109;BME280;29079;41.930;25.558;2023-04-16T06:18:08;99208.72;;;13.22;89.46
7109;BME280;29079;41.930;25.558;2023-04-16T06:20:41;99203.88;;;13.26;89.40
7109;BME280;29079;41.930;25.558;2023-04-16T06:23:14;99199.22;;;13.28;89.91
7109;BME280;29079;41.930;25.558;2023-04-16T06:25:47;99205.19;;;13.56;85.46
7109;BME280;29079;41.930;25.558;2023-04-16T06:28:22;99200.19;;;13.61;86.83
7109;BME280;29079;41.930;25.558;2023-04-16T06:30:55;99207.19;;;13.54;97.84
7109;BME280;29079;41.930;25.558;2023-04-16T06:33:28;99207.50;;;13.43;91.07
7109;BME280;29079;41.930;25.558;2023-04-16T06:36:02;99211.88;;;13.52;93.16
7109;BME280;29079;41.930;25.558;2023-04-16T06:38:35;99203.28;;;13.40;98.97
7109;BME280;29079;41.930;25.558;2023-04-16T06:41:09;99202.72;;;13.28;100.00
7109;BME280;29079;41.930;25.558;2023-04-16T06:43:44;99205.81;;;13.41;100.00
7109;BME280;29079;41.930;25.558;2023-04-16T06:46:17;99211.56;;;13.63;90.38
7109;BME280;29079;41.930;25.558;2023-04-16T06:48:50;99214.06;;;13.48;100.00
7109;BME280;29079;41.930;25.558;2023-04-16T06:51:23;99208.69;;;13.48;99.80
7109;BME280;29079;41.930;25.558;2023-04-16T06:53:57;99210.22;;;13.16;100.00
7109;BME280;29079;41.930;25.558;2023-04-16T06:56:30;99202.84;;;13.53;93.08
7109;BME280;29079;41.930;25.558;2023-04-16T06:59:05;99216.75;;;13.56;95.33
7109;BME280;29079;41.930;25.558;2023-04-16T07:01:39;99214.91;;;13.57;93.31
7109;BME280;29079;41.930;25.558;2023-04-16T07:04:12;99217.94;;;13.62;96.90
7109;BME280;29079;41.930;25.558;2023-04-16T07:06:45;99225.38;;;13.85;87.54
7109;BME280;29079;41.930;25.558;2023-04-16T07:09:18;99225.38;;;13.93;91.26
7109;BME280;29079;41.930;25.558;2023-04-16T07:12:00;99227.34;;;13.74;98.58
7109;BME280;29079;41.930;25.558;2023-04-16T07:14:35;99227.00;;;13.61;100.00
7109;BME280;29079;41.930;25.558;2023-04-16T07:17:08;99222.66;;;13.76;100.00
7109;BME280;29079;41.930;25.558;2023-04-16T07:19:41;99224.25;;;14.20;95.33
7109;BME280;29079;41.930;25.558;2023-04-16T07:22:14;99229.75;;;14.43;89.44
7109;BME280;29079;41.930;25.558;2023-04-16T07:24:47;99218.00;;;14.53;92.93
7109;BME280;29079;41.930;25.558;2023-04-16T07:27:21;99220.69;;;14.53;97.14
7109;BME280;29079;41.930;25.558;2023-04-16T07:29:55;99227.06;;;14.52;97.17
7109;BME280;29079;41.930;25.558;2023-04-16T07:32:28;99223.72;;;14.66;97.03
7109;BME280;29079;41.930;25.558;2023-04-16T07:35:02;99212.34;;;14.64;96.98
7109;BME280;29079;41.930;25.558;2023-04-16T07:37:36;99211.28;;;14.82;96.25
7109;BME280;29079;41.930;25.558;2023-04-16T07:40:10;99204.22;;;14.89;96.22
7109;BME280;29079;41.930;25.558;2023-04-16T07:42:43;99204.00;;;14.98;96.66
7109;BME280;29079;41.930;25.558;2023-04-16T07:45:17;99208.25;;;14.93;96.57
7109;BME280;29079;41.930;25.558;2023-04-16T07:47:50;99191.50;;;14.74;97.69
7109;BME280;29079;41.930;25.558;2023-04-16T07:50:23;99190.81;;;14.80;95.24
7109;BME280;29079;41.930;25.558;2023-04-16T07:52:56;99181.88;;;14.88;96.50
7109;BME280;29079;41.930;25.558;2023-04-16T07:55:30;99185.59;;;14.87;98.45
7109;BME280;29079;41.930;25.558;2023-04-16T07:58:03;99183.25;;;14.84;94.37
7109;BME280;29079;41.930;25.558;2023-04-16T08:00:38;99190.03;;;15.11;96.56
7109;BME280;29079;41.930;25.558;2023-04-16T08:03:11;99191.28;;;15.32;94.38
7109;BME280;29079;41.930;25.558;2023-04-16T08:05:45;99192.25;;;15.39;93.78
7109;BME280;29079;41.930;25.558;2023-04-16T08:08:18;99191.06;;;15.42;92.00
7109;BME280;29079;41.930;25.558;2023-04-16T08:10:52;99193.56;;;15.43;91.29
7109;BME280;29079;41.930;25.558;2023-04-16T08:13:27;99189.91;;;15.36;90.32
7109;BME280;29079;41.930;25.558;2023-04-16T08:16:06;99187.03;;;15.38;88.88
7109;BME280;29079;41.930;25.558;2023-04-16T08:18:39;99193.16;;;15.23;88.63
7109;BME280;29079;41.930;25.558;2023-04-16T08:21:12;99190.16;;;15.26;89.25
7109;BME280;29079;41.930;25.558;2023-04-16T08:23:45;99181.22;;;15.26;89.86
7109;BME280;29079;41.930;25.558;2023-04-16T08:26:18;99186.56;;;15.34;90.24
7109;BME280;29079;41.930;25.558;2023-04-16T08:28:52;99178.63;;;15.41;90.00
7109;BME280;29079;41.930;25.558;2023-04-16T08:31:26;99169.63;;;15.34;88.96
7109;BME280;29079;41.930;25.558;2023-04-16T08:33:59;99169.47;;;15.27;89.05
7109;BME280;29079;41.930;25.558;2023-04-16T08:36:33;99174.63;;;15.37;88.84
7109;BME280;29079;41.930;25.558;2023-04-16T08:39:06;99169.91;;;15.39;87.49
7109;BME280;29079;41.930;25.558;2023-04-16T08:41:42;99168.84;;;15.48;85.95
7109;BME280;29079;41.930;25.558;2023-04-16T08:44:18;99173.56;;;15.46;85.87
7109;BME280;29079;41.930;25.558;2023-04-16T08:46:53;99171.50;;;15.56;87.17
7109;BME280;29079;41.930;25.558;2023-04-16T08:49:28;99162.00;;;15.45;85.62
7109;BME280;29079;41.930;25.558;2023-04-16T08:52:04;99166.78;;;15.58;86.25
7109;BME280;29079;41.930;25.558;2023-04-16T08:54:41;99161.44;;;15.50;85.57
7109;BME280;29079;41.930;25.558;2023-04-16T08:57:17;99160.44;;;15.51;85.41
7109;BME280;29079;41.930;25.558;2023-04-16T08:59:50;99170.97;;;15.61;84.74
7109;BME280;29079;41.930;25.558;2023-04-16T09:02:27;99161.56;;;15.57;81.32
7109;BME280;29079;41.930;25.558;2023-04-16T09:05:01;99162.25;;;15.59;81.92
7109;BME280;29079;41.930;25.558;2023-04-16T09:07:35;99157.03;;;15.57;80.62
7109;BME280;29079;41.930;25.558;2023-04-16T09:10:08;99158.22;;;15.55;78.59
7109;BME280;29079;41.930;25.558;2023-04-16T09:12:42;99154.16;;;15.59;79.87
7109;BME280;29079;41.930;25.558;2023-04-16T09:15:16;99155.31;;;15.64;80.19
7109;BME280;29079;41.930;25.558;2023-04-16T09:17:54;99156.47;;;15.70;81.25
7109;BME280;29079;41.930;25.558;2023-04-16T09:20:28;99150.91;;;15.72;80.58
7109;BME280;29079;41.930;25.558;2023-04-16T09:23:01;99151.06;;;15.70;80.20
7109;BME280;29079;41.930;25.558;2023-04-16T09:25:34;99157.28;;;15.71;80.56
7109;BME280;29079;41.930;25.558;2023-04-16T09:28:08;99141.78;;;15.73;80.57
7109;BME280;29079;41.930;25.558;2023-04-16T09:30:41;99141.94;;;15.79;79.63
7109;BME280;29079;41.930;25.558;2023-04-16T09:33:17;99145.97;;;15.83;78.79
7109;BME280;29079;41.930;25.558;2023-04-16T09:35:53;99140.59;;;15.83;78.88
7109;BME280;29079;41.930;25.558;2023-04-16T09:38:26;99140.81;;;15.97;79.05
7109;BME280;29079;41.930;25.558;2023-04-16T09:41:17;99144.00;;;16.00;78.62
7109;BME280;29079;41.930;25.558;2023-04-16T09:43:54;99142.94;;;16.01;80.98
7109;BME280;29079;41.930;25.558;2023-04-16T09:46:28;99141.94;;;16.02;84.49
7109;BME280;29079;41.930;25.558;2023-04-16T09:49:05;99150.56;;;15.98;85.66
7109;BME280;29079;41.930;25.558;2023-04-16T09:51:41;99131.66;;;16.06;87.13
7109;BME280;29079;41.930;25.558;2023-04-16T09:54:14;99137.91;;;16.22;87.30
7109;BME280;29079;41.930;25.558;2023-04-16T09:56:47;99138.78;;;16.52;85.48
7109;BME280;29079;41.930;25.558;2023-04-16T09:59:20;99122.44;;;16.68;83.64
7109;BME280;29079;41.930;25.558;2023-04-16T10:01:57;99119.09;;;16.81;81.78
7109;BME280;29079;41.930;25.558;2023-04-16T10:04:48;99115.75;;;17.09;81.16
7109;BME280;29079;41.930;25.558;2023-04-16T10:07:22;99113.06;;;16.94;78.31
7109;BME280;29079;41.930;25.558;2023-04-16T10:09:59;99123.91;;;16.86;78.53
7109;BME280;29079;41.930;25.558;2023-04-16T10:12:34;99121.53;;;16.76;73.08
7109;BME280;29079;41.930;25.558;2023-04-16T10:15:07;99129.50;;;16.69;73.78
7109;BME280;29079;41.930;25.558;2023-04-16T10:17:41;99118.28;;;16.66;79.12
7109;BME280;29079;41.930;25.558;2023-04-16T10:20:16;99121.88;;;16.58;81.02
7109;BME280;29079;41.930;25.558;2023-04-16T10:22:49;99125.22;;;16.45;82.20
7109;BME280;29079;41.930;25.558;2023-04-16T10:25:22;99135.22;;;16.36;84.07
7109;BME280;29079;41.930;25.558;2023-04-16T10:27:56;99133.81;;;16.26;84.75
7109;BME280;29079;41.930;25.558;2023-04-16T10:30:30;99125.44;;;16.21;85.49
7109;BME280;29079;41.930;25.558;2023-04-16T10:33:03;99128.41;;;16.11;86.67
7109;BME280;29079;41.930;25.558;2023-04-16T10:35:39;99135.56;;;16.04;86.94
7109;BME280;29079;41.930;25.558;2023-04-16T10:38:22;99123.53;;;15.91;88.50
7109;BME280;29079;41.930;25.558;2023-04-16T10:41:00;99124.38;;;15.92;88.64
7109;BME280;29079;41.930;25.558;2023-04-16T10:43:37;99128.25;;;15.89;84.33
7109;BME280;29079;41.930;25.558;2023-04-16T10:46:30;99123.34;;;15.93;83.15
7109;BME280;29079;41.930;25.558;2023-04-16T10:49:11;99113.16;;;16.03;81.93
7109;BME280;29079;41.930;25.558;2023-04-16T10:51:55;99097.06;;;16.48;80.02
7109;BME280;29079;41.930;25.558;2023-04-16T10:54:29;99093.38;;;16.94;77.46
7109;BME280;29079;41.930;25.558;2023-04-16T10:57:02;99097.63;;;17.03;76.03
7109;BME280;29079;41.930;25.558;2023-04-16T10:59:36;99106.38;;;16.90;75.63
7109;BME280;29079;41.930;25.558;2023-04-16T11:02:12;99107.50;;;16.96;74.83
7109;BME280;29079;41.930;25.558;2023-04-16T11:04:45;99120.03;;;17.18;72.96
7109;BME280;29079;41.930;25.558;2023-04-16T11:07:22;99115.19;;;16.99;73.07
7109;BME280;29079;41.930;25.558;2023-04-16T11:10:03;99118.66;;;16.78;72.80
7109;BME280;29079;41.930;25.558;2023-04-16T11:12:37;99115.19;;;16.99;72.89
7109;BME280;29079;41.930;25.558;2023-04-16T11:15:12;99112.53;;;17.35;71.38
7109;BME280;29079;41.930;25.558;2023-04-16T11:17:46;99111.31;;;17.38;69.92
7109;BME280;29079;41.930;25.558;2023-04-16T11:20:22;99101.47;;;17.30;69.48
7109;BME280;29079;41.930;25.558;2023-04-16T11:22:57;99111.75;;;17.20;70.47
7109;BME280;29079;41.930;25.558;2023-04-16T11:25:30;99102.06;;;17.26;72.36
7109;BME280;29079;41.930;25.558;2023-04-16T11:28:05;99097.16;;;17.14;73.46
7109;BME280;29079;41.930;25.558;2023-04-16T11:30:38;99083.38;;;17.09;72.70
7109;BME280;29079;41.930;25.558;2023-04-16T11:33:12;99083.66;;;17.14;73.78
7109;BME280;29079;41.930;25.558;2023-04-16T11:35:45;99074.78;;;16.99;74.16
7109;BME280;29079;41.930;25.558;2023-04-16T11:38:33;99073.75;;;17.00;74.26
7109;BME280;29079;41.930;25.558;2023-04-16T11:41:07;99075.91;;;16.90;74.84
7109;BME280;29079;41.930;25.558;2023-04-16T11:43:40;99074.59;;;16.85;74.77
7109;BME280;29079;41.930;25.558;2023-04-16T11:46:13;99073.84;;;16.77;75.80
7109;BME280;29079;41.930;25.558;2023-04-16T11:48:58;99080.25;;;16.76;75.60
7109;BME280;29079;41.930;25.558;2023-04-16T11:51:31;99073.03;;;16.76;76.46
7109;BME280;29079;41.930;25.558;2023-04-16T11:54:06;99069.56;;;16.82;76.51
7109;BME280;29079;41.930;25.558;2023-04-16T11:56:43;99071.44;;;16.82;76.72
7109;BME280;29079;41.930;25.558;2023-04-16T11:59:17;99073.84;;;16.92;76.78
7109;BME280;29079;41.930;25.558;2023-04-16T12:01:51;99068.28;;;16.78;77.84
7109;BME280;29079;41.930;25.558;2023-04-16T12:04:26;99062.69;;;16.80;77.76
7109;BME280;29079;41.930;25.558;2023-04-16T12:07:03;99060.66;;;16.82;75.93
7109;BME280;29079;41.930;25.558;2023-04-16T12:09:38;99067.91;;;16.81;77.08
7109;BME280;29079;41.930;25.558;2023-04-16T12:12:24;99055.84;;;16.92;78.67
7109;BME280;29079;41.930;25.558;2023-04-16T12:14:59;99050.44;;;16.77;78.07
7109;BME280;29079;41.930;25.558;2023-04-16T12:17:35;99043.38;;;16.76;78.10
7109;BME280;29079;41.930;25.558;2023-04-16T12:20:08;99042.25;;;16.85;79.05
7109;BME280;29079;41.930;25.558;2023-04-16T12:22:43;99033.53;;;16.83;78.73
7109;BME280;29079;41.930;25.558;2023-04-16T12:25:18;99030.16;;;16.81;78.17
7109;BME280;29079;41.930;25.558;2023-04-16T12:27:53;99020.81;;;16.92;77.50
7109;BME280;29079;41.930;25.558;2023-04-16T12:30:27;99015.22;;;16.94;77.50
7109;BME280;29079;41.930;25.558;2023-04-16T12:33:14;99004.69;;;16.99;76.91
7109;BME280;29079;41.930;25.558;2023-04-16T12:35:48;99002.28;;;17.04;76.06
7109;BME280;29079;41.930;25.558;2023-04-16T12:38:31;99001.97;;;17.14;75.50
7109;BME280;29079;41.930;25.558;2023-04-16T12:41:06;98995.00;;;17.04;75.76
7109;BME280;29079;41.930;25.558;2023-04-16T12:43:39;98987.19;;;17.10;76.35
7109;BME280;29079;41.930;25.558;2023-04-16T12:46:13;98977.81;;;17.27;75.74
7109;BME280;29079;41.930;25.558;2023-04-16T12:48:46;98983.22;;;17.49;74.88
7109;BME280;29079;41.930;25.558;2023-04-16T12:51:20;98979.09;;;17.53;73.73
7109;BME280;29079;41.930;25.558;2023-04-16T12:53:53;98980.75;;;17.54;72.75
7109;BME280;29079;41.930;25.558;2023-04-16T12:56:28;98978.91;;;17.54;72.64
7109;BME280;29079;41.930;25.558;2023-04-16T12:59:02;98970.31;;;17.44;71.66
7109;BME280;29079;41.930;25.558;2023-04-16T13:01:35;98974.06;;;17.50;71.40
7109;BME280;29079;41.930;25.558;2023-04-16T13:04:08;98962.38;;;17.43;71.53
7109;BME280;29079;41.930;25.558;2023-04-16T13:06:41;98967.84;;;17.49;70.31
7109;BME280;29079;41.930;25.558;2023-04-16T13:09:15;98965.03;;;17.36;69.19
7109;BME280;29079;41.930;25.558;2023-04-16T13:12:01;98955.75;;;17.38;69.12
7109;BME280;29079;41.930;25.558;2023-04-16T13:14:34;98955.78;;;17.45;69.05
7109;BME280;29079;41.930;25.558;2023-04-16T13:17:08;98961.25;;;17.52;65.45
7109;BME280;29079;41.930;25.558;2023-04-16T13:19:41;98965.16;;;17.49;64.74
7109;BME280;29079;41.930;25.558;2023-04-16T13:22:14;98960.66;;;17.56;64.77
7109;BME280;29079;41.930;25.558;2023-04-16T13:24:47;98960.38;;;17.51;61.96
7109;BME280;29079;41.930;25.558;2023-04-16T13:27:22;98950.13;;;17.62;63.81
7109;BME280;29079;41.930;25.558;2023-04-16T13:29:54;98950.34;;;17.67;65.34
7109;BME280;29079;41.930;25.558;2023-04-16T13:32:28;98957.63;;;17.73;64.76
7109;BME280;29079;41.930;25.558;2023-04-16T13:35:01;98951.47;;;17.79;63.49
7109;BME280;29079;41.930;25.558;2023-04-16T13:37:34;98956.69;;;17.81;63.99